Terminal Aerodrome Forecast
Issued by NWS

Home | Current Version | Previous Version | Text Only | Print | Product List | Glossary Off
Versions: 1 2 3 4 5 6 7 8 9 10 11 12 13 14 15 16 17 18 19 20

000
FTUS43 KGRB 141141
TAFATW
TAF
KATW 141141Z 1412/1512 20009KT P6SM BKN200
     FM150000 17010KT P6SM -SN OVC035
     FM150200 17010KT 3SM -SN OVC025
     FM150300 16009KT 1 1/2SM -SN OVC015
     FM150900 12007KT 1SM -SN OVC012
      TEMPO 1509/1512 1/2SM SN OVC006=

USA.gov is the U.S. government's official web portal to all federal, state and local government web resources and services.